| time (UTC) | temp F | wind direction | speed knots | gust knots | rain 1hr in | rain 24hr in | rain mn in | humidity % | barometer mb |
| 20260506231553 | 84 | 360 | 0.0 | 4.3 | 0.00 | 0.00 | 0.00 | 14 | 1018.5 |
| 20260506230100 | 84 | 360 | 0.0 | 0.9 | 0.00 | 0.00 | 0.00 | 14 | 1018.8 |
| 20260506224550 | 84 | 360 | 0.0 | 0.9 | 0.00 | 0.00 | 0.00 | 14 | 1018.9 |
| 20260506223048 | 84 | 360 | 0.0 | 0.9 | 0.00 | 0.00 | 0.00 | 14 | 1019.0 |
| 20260506221549 | 83 | 360 | 0.0 | 0.9 | 0.00 | 0.00 | 0.00 | 15 | 1019.2 |
| 20260506220051 | 83 | 360 | 0.0 | 1.7 | 0.00 | 0.00 | 0.00 | 14 | 1019.4 |
| 20260506214546 | 83 | 360 | 0.0 | 2.6 | 0.00 | 0.00 | 0.00 | 15 | 1019.9 |
| 20260506213044 | 83 | 360 | 0.0 | 2.6 | 0.00 | 0.00 | 0.00 | 15 | 1019.9 |
| 20260506211543 | 83 | 360 | 0.0 | 2.6 | 0.00 | 0.00 | 0.00 | 15 | 1020.0 |
| 20260506210048 | 82 | 360 | 0.0 | 2.6 | 0.00 | 0.00 | 0.00 | 16 | 1020.0 |
| 20260506204541 | 82 | 360 | 0.0 | 0.9 | 0.00 | 0.00 | 0.00 | 16 | 1020.0 |
| 20260506203047 | 81 | 360 | 0.0 | 3.5 | 0.00 | 0.00 | 0.00 | 17 | 1020.2 |
| 20260506201545 | 81 | 360 | 0.0 | 0.9 | 0.00 | 0.00 | 0.00 | 18 | 1020.4 |
| 20260506200033 | 79 | 360 | 0.0 | 1.7 | 0.00 | 0.00 | 0.00 | 19 | 1020.7 |
| 20260506194539 | 79 | 360 | 0.0 | 1.7 | 0.00 | 0.00 | 0.00 | 20 | 1021.0 |
| 20260506193030 | 77 | 360 | 0.0 | 0.9 | 0.00 | 0.00 | 0.00 | 21 | 1021.3 |
| 20260506191525 | 76 | 360 | 0.0 | 0.9 | 0.00 | 0.00 | 0.00 | 23 | 1021.6 |
| 20260506190121 | 76 | 360 | 0.0 | 4.3 | 0.00 | 0.00 | 0.00 | 23 | 1021.6 |
| 20260506184519 | 74 | 360 | 0.0 | 0.9 | 0.00 | 0.00 | 0.00 | 24 | 1021.9 |
| 20260506183015 | 74 | 360 | 0.0 | 0.0 | 0.00 | 0.00 | 0.00 | 24 | 1022.0 |
| 20260506181512 | 73 | 360 | 0.0 | 0.9 | 0.00 | 0.00 | 0.00 | 25 | 1022.1 |
| 20260506180008 | 72 | 360 | 0.0 | 0.9 | 0.00 | 0.00 | 0.00 | 26 | 1022.5 |
| 20260506174505 | 72 | 360 | 0.0 | 0.9 | 0.00 | 0.00 | 0.00 | 26 | 1022.6 |
| 20260506173130 | 71 | 360 | 0.0 | 0.0 | 0.00 | 0.00 | 0.00 | 27 | 1022.5 |
| 20260506171559 | 69 | 360 | 0.0 | 0.0 | 0.00 | 0.00 | 0.00 | 27 | 1022.5 |
| 20260506170053 | 68 | 360 | 0.0 | 0.9 | 0.00 | 0.00 | 0.00 | 28 | 1022.6 |
| 20260506164549 | 67 | 360 | 0.0 | 0.0 | 0.00 | 0.00 | 0.00 | 29 | 1022.6 |
| 20260506163059 | 66 | 360 | 0.0 | 0.0 | 0.00 | 0.00 | 0.00 | 32 | 1022.6 |
| 20260506161542 | 65 | 360 | 0.0 | 0.0 | 0.00 | 0.00 | 0.00 | 34 | 1022.6 |
| 20260506160035 | 63 | 360 | 0.0 | 0.0 | 0.00 | 0.00 | 0.00 | 37 | 1022.5 |
| 20260506154537 | 62 | 360 | 0.0 | 0.0 | 0.00 | 0.00 | 0.00 | 40 | 1022.5 |
| 20260506153025 | 60 | 360 | 0.0 | 0.0 | 0.00 | 0.00 | 0.00 | 42 | 1022.5 |
| 20260506151522 | 59 | 360 | 0.0 | 0.0 | 0.00 | 0.00 | 0.00 | 44 | 1022.6 |
| 20260506150017 | 58 | 360 | 0.0 | 0.0 | 0.00 | 0.00 | 0.00 | 46 | 1022.5 |
| 20260506144513 | 56 | 360 | 0.0 | 0.0 | 0.00 | 0.00 | 0.00 | 48 | 1022.5 |
| 20260506143015 | 56 | 360 | 0.0 | 0.0 | 0.00 | 0.00 | 0.00 | 50 | 1022.4 |
| 20260506141505 | 55 | 360 | 0.0 | 0.0 | 0.00 | 0.00 | 0.00 | 53 | 1022.2 |
| 20260506140001 | 53 | 360 | 0.0 | 0.0 | 0.00 | 0.00 | 0.00 | 54 | 1022.0 |
| 20260506134558 | 52 | 360 | 0.0 | 0.0 | 0.00 | 0.00 | 0.00 | 56 | 1021.9 |
| 20260506133058 | 51 | 360 | 0.0 | 0.0 | 0.00 | 0.00 | 0.00 | 58 | 1021.5 |
| 20260506131549 | 51 | 360 | 0.0 | 0.0 | 0.00 | 0.00 | 0.00 | 58 | 1021.3 |
| 20260506130046 | 51 | 360 | 0.0 | 0.0 | 0.00 | 0.00 | 0.00 | 57 | 1021.1 |
| 20260506124542 | 51 | 360 | 0.0 | 0.0 | 0.00 | 0.00 | 0.00 | 57 | 1020.9 |
| 20260506123041 | 51 | 360 | 0.0 | 0.0 | 0.00 | 0.00 | 0.00 | 56 | 1020.6 |
| 20260506121539 | 52 | 360 | 0.0 | 0.0 | 0.00 | 0.00 | 0.00 | 55 | 1020.6 |
| 20260506120037 | 53 | 360 | 0.0 | 0.0 | 0.00 | 0.00 | 0.00 | 55 | 1020.6 |
| 20260506114537 | 53 | 360 | 0.0 | 0.0 | 0.00 | 0.00 | 0.00 | 55 | 1020.5 |
| 20260506113035 | 53 | 360 | 0.0 | 0.0 | 0.00 | 0.00 | 0.00 | 56 | 1020.3 |
| 20260506111541 | 54 | 360 | 0.0 | 0.0 | 0.00 | 0.00 | 0.00 | 54 | 1020.5 |
| 20260506110034 | 54 | 360 | 0.0 | 0.0 | 0.00 | 0.00 | 0.00 | 52 | 1020.3 |
| 20260506104536 | 54 | 360 | 0.0 | 0.0 | 0.00 | 0.00 | 0.00 | 54 | 1020.2 |
| 20260506103033 | 53 | 360 | 0.0 | 0.0 | 0.00 | 0.00 | 0.00 | 55 | 1020.1 |
| 20260506101530 | 53 | 360 | 0.0 | 0.0 | 0.00 | 0.00 | 0.00 | 58 | 1020.0 |
| 20260506100029 | 53 | 360 | 0.0 | 0.0 | 0.00 | 0.00 | 0.00 | 57 | 1020.2 |
| 20260506094529 | 53 | 360 | 0.0 | 0.0 | 0.00 | 0.00 | 0.00 | 57 | 1020.0 |
| 20260506093041 | 53 | 360 | 0.0 | 0.0 | 0.00 | 0.00 | 0.00 | 56 | 1019.9 |
| 20260506091525 | 54 | 360 | 0.0 | 7.8 | 0.00 | 0.00 | 0.00 | 56 | 1019.6 |
| 20260506090024 | 53 | 360 | 0.0 | 0.0 | 0.00 | 0.00 | 0.00 | 56 | 1019.7 |
| 20260506084523 | 54 | 360 | 0.0 | 0.0 | 0.00 | 0.00 | 0.00 | 56 | 1019.8 |
| 20260506083021 | 54 | 360 | 0.0 | 0.0 | 0.00 | 0.00 | 0.00 | 55 | 1019.8 |
| 20260506081520 | 54 | 360 | 0.0 | 0.0 | 0.00 | 0.00 | 0.00 | 55 | 1019.7 |
| 20260506073016 | 55 | 360 | 0.0 | 0.0 | 0.00 | 0.00 | 0.00 | 52 | 1019.5 |
| 20260506071514 | 55 | 360 | 0.0 | 0.0 | 0.00 | 0.00 | 0.00 | 53 | 1019.3 |
| 20260506061508 | 55 | 360 | 0.0 | 0.0 | 0.00 | 0.00 | 0.00 | 54 | 1018.6 |
| 20260506044616 | 57 | 360 | 0.0 | 0.0 | 0.00 | 0.00 | 0.00 | 50 | 1017.8 |
| 20260506043059 | 58 | 360 | 0.0 | 0.0 | 0.00 | 0.00 | 0.00 | 49 | 1017.5 |
| 20260506041608 | 58 | 360 | 0.0 | 0.0 | 0.00 | 0.00 | 0.00 | 47 | 1017.3 |
| 20260506040101 | 59 | 360 | 0.0 | 0.0 | 0.00 | 0.00 | 0.00 | 46 | 1017.1 |
| 20260506034556 | 61 | 360 | 0.0 | 0.0 | 0.00 | 0.00 | 0.00 | 41 | 1016.7 |
| 20260506033055 | 61 | 360 | 0.0 | 0.0 | 0.00 | 0.00 | 0.00 | 40 | 1016.4 |
| 20260506031553 | 62 | 360 | 0.0 | 0.0 | 0.00 | 0.00 | 0.00 | 39 | 1016.2 |
| 20260506030051 | 63 | 360 | 0.0 | 0.0 | 0.00 | 0.00 | 0.00 | 37 | 1015.7 |
| 20260506024551 | 64 | 360 | 0.0 | 0.0 | 0.00 | 0.00 | 0.00 | 33 | 1015.6 |
| 20260506023056 | 66 | 360 | 0.0 | 0.0 | 0.00 | 0.00 | 0.00 | 31 | 1015.4 |
| 20260506021551 | 68 | 360 | 0.0 | 0.0 | 0.00 | 0.00 | 0.00 | 27 | 1015.2 |
| 20260506020116 | 71 | 360 | 0.0 | 0.0 | 0.00 | 0.00 | 0.00 | 26 | 1015.1 |
| 20260506014550 | 71 | 360 | 0.0 | 0.0 | 0.00 | 0.00 | 0.00 | 26 | 1014.9 |
| 20260506013048 | 72 | 360 | 0.0 | 0.0 | 0.00 | 0.00 | 0.00 | 23 | 1014.7 |
| 20260506011550 | 72 | 360 | 0.0 | 0.0 | 0.00 | 0.00 | 0.00 | 22 | 1014.7 |
| 20260506010046 | 72 | 360 | 0.0 | 0.0 | 0.00 | 0.00 | 0.00 | 23 | 1014.8 |
| 20260506004546 | 71 | 360 | 0.0 | 0.9 | 0.00 | 0.00 | 0.00 | 24 | 1014.7 |
| 20260506003047 | 72 | 360 | 0.0 | 0.9 | 0.00 | 0.00 | 0.00 | 23 | 1014.5 |
| 20260506001551 | 72 | 360 | 0.0 | 0.9 | 0.00 | 0.00 | 0.00 | 23 | 1014.5 |
| 20260506000056 | 71 | 360 | 0.0 | 1.7 | 0.00 | 0.00 | 0.00 | 24 | 1014.6 |
| 20260505234544 | 70 | 360 | 0.0 | 0.0 | 0.00 | 0.00 | 0.00 | 26 | 1014.5 |
| 20260505233048 | 70 | 360 | 0.0 | 3.5 | 0.00 | 0.00 | 0.00 | 26 | 1014.5 |